Latest Weather Observations for New May Downs

IDQ60801

Issued at 5:35 pm EST Friday 31 October 2014 (issued every 30 minutes, with the page automatically refreshed every 10 minutes)

About weather observations | Map of weather stations | Latest weather observations for QLD | Other Formats
Station Details ID: 037059 Name: NEW MAY DOWNS Lat: -20.59 Lon: 139.34 Height: 392.0 m
Data from the previous 72 hours. | See also: Recent months for locations in Queensland
Date/Time
EST
Temp
°C
App
Temp
°C
Dew
Point
Rel
Hum
%
Delta-T
°C
Wind Press
QNH
hPa
Press
MSL
hPa
Rain
since 9 am
mm
Dir
 
Spd
km/h
Gust
km/h
Spd
kts
Gust
kts
31/05:30pm 39.2 35.3 -4.9 6 21.1 SSW 7 15 4 8 - - 0.0
31/05:00pm 39.4 35.5 -4.8 6 21.2 WSW 7 17 4 9 - - 0.0
31/04:30pm 39.8 34.0 -4.5 6 21.4 W 17 24 9 13 - - 0.0
31/04:00pm 39.9 36.0 -4.4 6 21.4 N 7 13 4 7 - - 0.0
31/03:30pm 39.8 36.1 -4.5 6 21.4 N 6 11 3 6 - - 0.0
31/03:00pm 39.8 35.5 -4.5 6 21.4 SE 9 15 5 8 - - 0.0
31/02:30pm 39.5 34.8 -4.7 6 21.2 WNW 11 32 6 17 - - 0.0
31/02:00pm 39.4 34.3 -4.8 6 21.2 S 13 20 7 11 - - 0.0
31/01:30pm 39.4 34.3 -4.8 6 21.2 NNE 13 22 7 12 - - 0.0
31/01:00pm 38.7 33.8 -7.6 5 21.2 N 11 20 6 11 - - 0.0
31/12:30pm 37.7 32.7 -8.3 5 20.6 NW 11 20 6 11 - - 0.0
31/12:00pm 37.6 32.6 -8.4 5 20.6 N 11 26 6 14 - - 0.0
31/11:30am 38.8 34.6 -7.6 5 21.2 N 7 22 4 12 - - 0.0
31/11:00am 36.7 32.2 -6.7 6 19.8 NNE 9 17 5 9 - - 0.0
31/10:30am 36.9 31.7 -6.5 6 19.9 E 13 17 7 9 - - 0.0
31/10:00am 35.9 30.6 -7.2 6 19.4 ENE 13 19 7 10 - - 0.0
31/09:30am 35.1 29.9 -5.8 7 18.7 NE 13 22 7 12 - - 0.0
31/09:00am 34.4 28.8 -6.3 7 18.4 E 15 20 8 11 - - 0.0
31/08:30am 33.7 28.8 -6.8 7 18.1 ESE 11 17 6 9 - - 0.0
31/08:00am 31.7 26.8 -6.6 8 16.9 ESE 11 17 6 9 - - 0.0
31/07:30am 29.5 26.0 -6.7 9 15.6 E 4 7 2 4 - - 0.0
31/07:00am 27.1 23.0 -7.1 10 14.3 E 7 9 4 5 - - 0.0
31/06:30am 25.5 21.3 -8.3 10 13.7 E 7 7 4 4 - - 0.0
31/06:00am 24.6 20.4 -7.8 11 13.1 E 7 9 4 5 - - 0.0
31/05:30am 25.7 21.5 -8.2 10 13.8 E 7 9 4 5 - - 0.0
31/05:00am 25.0 20.9 -8.7 10 13.5 E 6 7 3 4 - - 0.0
31/04:30am 24.3 20.5 -9.2 10 13.2 SE 4 6 2 3 - - 0.0
31/04:00am 24.5 20.4 -9.1 10 13.2 NE 6 7 3 4 - - 0.0
31/03:30am 25.4 21.3 -8.4 10 13.6 E 6 6 3 3 - - 0.0
31/03:00am 25.3 21.2 -8.5 10 13.6 NE 6 6 3 3 - - 0.0
31/02:30am 24.6 20.9 -9.0 10 13.3 SSE 4 4 2 2 - - 0.0
31/02:00am 23.7 19.5 -9.7 10 12.9 ENE 6 9 3 5 - - 0.0
31/01:30am 25.9 21.8 -9.4 9 14.0 SSW 6 9 3 5 - - 0.0
31/01:00am 26.2 22.1 -9.1 9 14.2 SSW 6 7 3 4 - - 0.0
31/12:30am 26.5 22.2 -8.9 9 14.3 SW 7 11 4 6 - - 0.0
31/12:00am 26.6 22.5 -8.8 9 14.3 SW 6 6 3 3 - - 0.0
 
Date/Time
EST
Temp
°C
App
Temp
°C
Dew
Point
Rel
Hum
%
Delta-T
°C
Wind Press
QNH
hPa
Press
MSL
hPa
Rain
since 9 am
mm
Dir
 
Spd
km/h
Gust
km/h
Spd
kts
Gust
kts
30/11:30pm 27.4 23.2 -8.2 9 14.7 SW 7 9 4 5 - - 0.0
30/11:00pm 27.6 23.4 -8.1 9 14.8 SW 7 9 4 5 - - 0.0
30/10:30pm 28.4 23.7 -9.0 8 15.3 SW 9 11 5 6 - - 0.0
30/10:00pm 28.8 24.5 -8.7 8 15.5 SW 7 9 4 5 - - 0.0
30/09:30pm 29.5 25.3 -8.2 8 15.8 SW 7 9 4 5 - - 0.0
30/09:00pm 30.1 25.9 -7.7 8 16.1 SW 7 9 4 5 - - 0.0
30/08:30pm 30.8 26.6 -7.2 8 16.4 SW 7 9 4 5 - - 0.0
30/08:00pm 31.6 27.4 -8.3 7 17.0 SW 7 9 4 5 - - 0.0
30/07:30pm 33.1 28.9 -7.3 7 17.8 SW 7 9 4 5 - - 0.0
30/07:00pm 35.0 30.8 -7.9 6 19.0 SW 7 13 4 7 - - 0.0
30/06:30pm 36.6 30.4 -9.1 5 20.1 SSW 17 26 9 14 - - 0.0
30/06:00pm 37.6 31.8 -8.4 5 20.6 SSW 15 24 8 13 - - 0.0
30/05:30pm 38.1 31.4 -8.1 5 20.9 WSW 20 26 11 14 - - 0.0
30/05:00pm 38.5 32.4 -7.8 5 21.1 SSW 17 24 9 13 - - 0.0
30/04:30pm 38.3 31.2 -7.9 5 21.0 SW 22 33 12 18 - - 0.0
30/04:00pm 38.7 32.2 -7.6 5 21.2 SW 19 30 10 16 - - 0.0
30/03:30pm 38.6 32.9 -7.7 5 21.1 SSW 15 32 8 17 - - 0.0
30/03:00pm 39.3 31.9 -7.2 5 21.5 SW 24 30 13 16 - - 0.0
30/02:30pm 38.8 32.7 -7.6 5 21.2 SSW 17 26 9 14 - - 0.0
30/02:00pm 39.0 34.7 -5.1 6 21.0 S 9 19 5 10 - - 0.0
30/01:30pm 38.4 33.3 -5.5 6 20.7 WSW 13 32 7 17 - - 0.0
30/01:00pm 36.9 32.3 -4.5 7 19.6 SW 11 30 6 16 - - 0.0
30/12:30pm 37.6 32.3 -4.0 7 20.0 S 15 24 8 13 - - 0.0
30/12:00pm 37.0 31.2 -4.4 7 19.7 S 17 28 9 15 - - 0.0
30/11:30am 36.7 32.6 -6.7 6 19.8 SE 7 15 4 8 - - 0.0
30/11:00am 37.0 32.9 -6.5 6 20.0 E 7 13 4 7 - - 0.0
30/10:30am 35.8 30.1 -7.3 6 19.4 ESE 15 26 8 14 - - 0.0
30/10:00am 35.0 29.3 -7.9 6 19.0 E 15 26 8 14 - - 0.0
30/09:30am 34.4 28.4 -6.3 7 18.4 ESE 17 24 9 13 - - 0.0
30/09:00am 32.5 26.4 -7.7 7 17.5 ESE 17 24 9 13 - - 0.0
30/08:30am 32.0 26.2 -8.1 7 17.2 ESE 15 22 8 12 - - 0.0
30/08:00am 30.6 24.9 -7.4 8 16.3 ESE 15 20 8 11 - - 0.0
30/07:30am 28.1 24.1 -7.7 9 15.0 ESE 6 9 3 5 - - 0.0
30/07:00am 25.9 21.6 -9.4 9 14.0 ESE 7 9 4 5 - - 0.0
30/06:30am 24.0 19.8 -9.5 10 13.0 E 6 9 3 5 - - 0.0
30/06:00am 24.4 19.7 -9.1 10 13.2 SE 9 11 5 6 - - 0.0
30/05:30am 24.8 20.4 -10.2 9 13.6 ESE 7 9 4 5 - - 0.0
30/05:00am 25.3 20.7 -8.5 10 13.6 ESE 9 11 5 6 - - 0.0
30/04:30am 23.9 18.9 -8.3 11 12.8 NE 11 15 6 8 - - 0.0
30/04:00am 25.6 21.5 -8.2 10 13.7 SE 6 7 3 4 - - 0.0
30/03:30am 25.3 21.2 -8.5 10 13.6 S 6 6 3 3 - - 0.0
30/03:00am 26.4 22.1 -9.0 9 14.2 S 7 9 4 5 - - 0.0
30/02:30am 25.8 21.8 -8.1 10 13.8 SSE 6 7 3 4 - - 0.0
30/02:00am 25.9 21.7 -8.0 10 13.8 S 7 9 4 5 - - 0.0
30/01:30am 26.4 22.3 -6.4 11 13.8 S 7 9 4 5 - - 0.0
30/01:00am 26.3 22.0 -5.3 12 13.6 S 9 15 5 8 - - 0.0
30/12:30am 26.5 22.7 -5.2 12 13.7 SSW 6 7 3 4 - - 0.0
30/12:00am 27.1 23.2 -4.7 12 13.9 SSW 7 9 4 5 - - 0.0
 
Date/Time
EST
Temp
°C
App
Temp
°C
Dew
Point
Rel
Hum
%
Delta-T
°C
Wind Press
QNH
hPa
Press
MSL
hPa
Rain
since 9 am
mm
Dir
 
Spd
km/h
Gust
km/h
Spd
kts
Gust
kts
29/11:30pm 27.7 23.8 -4.3 12 14.2 S 7 9 4 5 - - 0.0
29/11:00pm 28.6 24.3 -4.7 11 14.8 SSW 9 11 5 6 - - 0.0
29/10:30pm 29.1 24.9 -4.3 11 15.0 SSW 9 11 5 6 - - 0.0
29/10:00pm 30.1 26.2 -4.8 10 15.6 SSW 7 11 4 6 - - 0.0
29/09:30pm 31.2 26.2 -4.0 10 16.1 SSW 13 15 7 8 - - 0.0
29/09:00pm 31.4 26.8 -3.8 10 16.2 SSW 11 15 6 8 - - 0.0
29/08:30pm 31.9 27.7 -3.5 10 16.4 SSW 9 11 5 6 - - 0.0
29/08:00pm 32.8 28.7 -2.8 10 16.8 SSW 9 13 5 7 - - 0.0
29/07:30pm 33.9 30.1 -3.4 9 17.6 SSW 7 9 4 5 - - 0.0
29/07:00pm 35.5 31.5 -2.2 9 18.3 SSW 9 13 5 7 - - 0.0
29/06:30pm 36.9 32.8 -2.7 8 19.3 S 9 15 5 8 - - 0.0
29/06:00pm 37.9 33.2 -2.0 8 19.8 SW 13 22 7 12 - - 0.0
29/05:30pm 38.4 34.8 -3.4 7 20.3 SSE 6 13 3 7 - - 0.0
29/05:00pm 38.7 33.4 -3.2 7 20.5 SSE 15 28 8 15 - - 0.0
29/04:30pm 38.8 33.5 -3.2 7 20.6 SW 15 24 8 13 - - 0.0
29/04:00pm 39.4 35.7 -2.7 7 20.8 NNW 7 13 4 7 - - 0.0
29/03:30pm 39.0 34.9 -3.0 7 20.6 SSE 9 22 5 12 - - 0.0
29/03:00pm 38.7 34.6 -3.2 7 20.5 SW 9 24 5 13 - - 0.0
29/02:30pm 39.3 33.3 -2.8 7 20.8 SSE 19 26 10 14 - - 0.0
29/02:00pm 39.0 34.1 -3.0 7 20.6 S 13 19 7 10 - - 0.0
29/01:30pm 38.4 33.7 -5.5 6 20.7 E 11 26 6 14 - - 0.0
29/01:00pm 37.6 33.2 -6.0 6 20.3 S 9 15 5 8 - - 0.0
29/12:30pm 38.0 32.8 -5.8 6 20.5 SSE 13 20 7 11 - - 0.0
29/12:00pm 37.4 31.6 -4.2 7 19.9 S 17 28 9 15 - - 0.0
29/11:30am 37.0 31.6 -4.4 7 19.7 ESE 15 26 8 14 - - 0.0
29/11:00am 36.7 31.3 -4.7 7 19.5 E 15 22 8 12 - - 0.0
29/10:30am 35.0 28.7 -5.9 7 18.7 ESE 19 33 10 18 - - 0.0
29/10:00am 34.9 28.4 -6.0 7 18.6 ESE 20 32 11 17 - - 0.0
29/09:30am 33.8 26.8 -6.8 7 18.1 ESE 22 37 12 20 - - 0.0
29/09:00am 33.4 27.0 -7.0 7 17.9 ESE 19 33 10 18 - - 0.0
29/08:30am 32.0 26.0 -6.3 8 17.0 SE 17 30 9 16 - - 0.0
29/08:00am 30.1 24.1 -6.2 9 15.9 SSE 17 28 9 15 - - 0.0
29/07:30am 29.4 25.0 -5.4 10 15.3 SE 9 15 5 8 - - 0.0
29/07:00am 27.2 23.3 -4.6 12 14.0 ESE 7 13 4 7 - - 0.0
29/06:30am 25.5 21.6 -4.9 13 13.1 ESE 7 13 4 7 - - 0.0
29/06:00am 26.6 22.3 -5.1 12 13.7 S 9 13 5 7 - - 0.0
29/05:30am 27.3 23.0 -4.6 12 14.0 S 9 15 5 8 - - 0.0
29/05:00am 27.6 23.0 -4.3 12 14.1 SSE 11 20 6 11 - - 0.0
29/04:30am 28.1 22.8 -3.9 12 14.3 SSE 15 26 8 14 - - 0.0
29/04:00am 27.6 24.2 -2.3 14 13.7 SSE 6 11 3 6 - - 0.0
29/03:30am 28.1 24.0 -2.9 13 14.1 SE 9 13 5 7 - - 0.0
29/03:00am 28.3 24.4 -1.7 14 14.0 SE 9 15 5 8 - - 0.0
29/02:30am 28.0 24.4 -2.0 14 13.9 SE 7 9 4 5 - - 0.0
29/02:00am 28.7 24.8 -1.4 14 14.2 SSE 9 13 5 7 - - 0.0
29/01:30am 29.2 25.5 -0.1 15 14.1 S 9 17 5 9 - - 0.0
29/01:00am 29.9 25.9 0.5 15 14.4 S 11 15 6 8 - - 0.0
29/12:30am 30.5 26.2 1.0 15 14.6 S 13 20 7 11 - - 0.0
29/12:00am 31.1 26.9 1.4 15 14.9 S 13 20 7 11 - - 0.0
 
Date/Time
EST
Temp
°C
App
Temp
°C
Dew
Point
Rel
Hum
%
Delta-T
°C
Wind Press
QNH
hPa
Press
MSL
hPa
Rain
since 9 am
mm
Dir
 
Spd
km/h
Gust
km/h
Spd
kts
Gust
kts
28/11:30pm 31.5 27.3 1.8 15 15.0 S 13 20 7 11 - - 0.0
28/11:00pm 31.8 28.2 2.9 16 14.9 S 11 17 6 9 - - 0.0
28/10:30pm 32.5 28.8 2.5 15 15.5 SSE 11 19 6 10 - - 0.0
28/10:00pm 32.9 28.9 2.9 15 15.6 S 13 19 7 10 - - 0.0
28/09:30pm 33.0 29.6 3.9 16 15.4 S 11 19 6 10 - - 0.0
28/09:00pm 33.5 29.6 3.3 15 15.9 SSE 13 17 7 9 - - 0.0
28/08:30pm 34.0 30.0 2.8 14 16.3 SSE 13 19 7 10 - - 0.0
28/08:00pm 35.0 30.6 2.5 13 17.0 SSE 15 22 8 12 - - 0.0
28/07:30pm 35.4 30.6 2.8 13 17.2 SSE 17 28 9 15 - - 0.0
28/07:00pm 35.9 31.8 2.1 12 17.7 SSE 13 24 7 13 - - 0.0
28/06:30pm 36.8 31.8 1.5 11 18.4 SE 17 30 9 16 - - 0.0
28/06:00pm 37.2 31.9 1.8 11 18.5 S 19 30 10 16 - - 0.0

Other Formats:

Comma delimited format used in spreadsheet applications
http://www.bom.gov.au/fwo/IDQ60801/IDQ60801.94349.axf

JavaScript Object Notation format (JSON) in row-major order
http://www.bom.gov.au/fwo/IDQ60801/IDQ60801.94349.json